Time;durP1;ratioP1;P1;durP2;ratioP2;P2;SDS_P1;SDS_P2;PMS_P1;PMS_P2;Temp;Humidity;BMP_temperature;BMP_pressure;BME280_temperature;BME280_humidity;BME280_pressure;Samples;Min_cycle;Max_cycle;Signal;HPM_P1;HPM_P2
2021/03/09 00:01:43;;;;;;;9.10;4.45;;;;;;;-5.03;67.23;100645.79;1787590;79;21201;-70
2021/03/09 00:04:11;;;;;;;9.98;4.45;;;;;;;-4.98;67.09;100640.92;1793222;79;21092;-70
2021/03/09 00:06:40;;;;;;;9.60;4.70;;;;;;;-4.95;66.93;100634.10;1764733;79;21135;-69
2021/03/09 00:09:08;;;;;;;12.13;5.47;;;;;;;-4.89;66.82;100639.19;1794324;79;21159;-69
2021/03/09 00:11:36;;;;;;;10.15;5.55;;;;;;;-4.83;66.56;100641.18;1790541;79;21901;-70
2021/03/09 00:14:03;;;;;;;11.12;4.75;;;;;;;-4.77;66.32;100631.91;1788831;79;21636;-69
2021/03/09 00:16:31;;;;;;;10.72;5.87;;;;;;;-4.72;65.95;100635.69;1794544;77;21166;-71
2021/03/09 00:18:59;;;;;;;8.50;4.37;;;;;;;-4.67;65.57;100639.16;1804327;79;21126;-71
2021/03/09 00:21:27;;;;;;;7.83;3.72;;;;;;;-4.62;65.37;100634.77;1798175;79;21210;-72
2021/03/09 00:23:55;;;;;;;8.13;3.40;;;;;;;-4.59;65.27;100633.96;1787046;80;21255;-74
2021/03/09 00:26:23;;;;;;;7.22;3.47;;;;;;;-4.55;65.17;100644.89;1799325;77;21120;-72
2021/03/09 00:28:51;;;;;;;7.35;3.55;;;;;;;-4.55;65.11;100636.58;1799950;78;21175;-70
2021/03/09 00:31:19;;;;;;;7.45;3.62;;;;;;;-4.49;65.06;100641.66;1807745;78;21211;-71
2021/03/09 00:33:47;;;;;;;6.35;3.25;;;;;;;-4.46;65.02;100645.26;1823495;78;21504;-72
2021/03/09 00:36:15;;;;;;;7.35;3.62;;;;;;;-4.43;64.94;100643.64;1808509;78;21331;-71
2021/03/09 00:38:43;;;;;;;7.80;3.52;;;;;;;-4.42;64.69;100641.84;1799698;78;21203;-74
2021/03/09 00:41:12;;;;;;;6.40;3.20;;;;;;;-4.42;64.71;100643.16;1802254;78;21128;-71
2021/03/09 00:43:40;;;;;;;6.95;3.22;;;;;;;-4.38;64.63;100645.77;1794358;78;21662;-72
2021/03/09 00:46:08;;;;;;;7.25;2.98;;;;;;;-4.35;64.43;100641.55;1809185;78;21219;-70
2021/03/09 00:48:41;;;;;;;7.85;3.60;;;;;;;-4.36;64.37;100635.52;1797539;79;21303;-72
2021/03/09 00:51:13;;;;;;;7.45;3.70;;;;;;;-4.32;64.32;100644.66;1796753;79;21111;-69
2021/03/09 00:53:40;;;;;;;8.08;3.70;;;;;;;-4.27;64.22;100641.09;1792482;79;21159;-71
2021/03/09 00:56:08;;;;;;;8.60;3.50;;;;;;;-4.23;64.12;100640.29;1792592;78;21178;-72
2021/03/09 00:58:37;;;;;;;7.42;3.27;;;;;;;-4.19;64.09;100638.99;1797578;79;21673;-70
2021/03/09 01:01:04;;;;;;;9.68;3.90;;;;;;;-4.15;63.96;100640.30;1799038;78;21271;-69
2021/03/09 01:03:32;;;;;;;6.65;3.72;;;;;;;-4.11;63.88;100637.73;1802669;78;21636;-69
2021/03/09 01:06:01;;;;;;;8.35;3.67;;;;;;;-4.06;63.75;100636.74;1804804;77;21202;-70
2021/03/09 01:08:29;;;;;;;7.83;3.52;;;;;;;-4.01;63.62;100643.61;1798374;79;21639;-70
2021/03/09 01:10:57;;;;;;;8.53;4.08;;;;;;;-4.00;63.48;100640.52;1796524;77;21290;-70
2021/03/09 01:13:25;;;;;;;9.33;4.20;;;;;;;-3.99;63.42;100643.94;1792407;79;21192;-70
2021/03/09 01:15:53;;;;;;;8.73;4.12;;;;;;;-4.00;63.33;100644.43;1783193;80;21119;-71
2021/03/09 01:18:21;;;;;;;8.00;4.20;;;;;;;-3.98;63.40;100644.25;1795864;79;21095;-69
2021/03/09 01:20:49;;;;;;;7.28;3.72;;;;;;;-3.95;63.39;100643.94;1801401;79;21701;-70
2021/03/09 01:23:17;;;;;;;8.08;3.87;;;;;;;-3.94;63.34;100646.89;1779758;80;21198;-70
2021/03/09 01:25:44;;;;;;;8.75;3.85;;;;;;;-3.91;63.30;100644.78;1792491;78;21358;-70
2021/03/09 01:28:13;;;;;;;6.45;3.17;;;;;;;-3.89;63.30;100648.52;1803037;77;21587;-70
2021/03/09 01:30:40;;;;;;;9.35;4.10;;;;;;;-3.84;63.20;100653.59;1801124;78;21144;-71
2021/03/09 01:33:09;;;;;;;7.20;3.65;;;;;;;-3.81;63.17;100657.68;1798623;78;21140;-71
2021/03/09 01:35:38;;;;;;;8.45;3.35;;;;;;;-3.80;63.18;100660.12;1790289;79;21120;-69
2021/03/09 01:38:05;;;;;;;8.03;3.37;;;;;;;-3.75;63.15;100661.42;1795203;79;21373;-70
2021/03/09 01:40:33;;;;;;;6.05;3.30;;;;;;;-3.74;63.12;100657.86;1797439;79;21127;-70
2021/03/09 01:43:03;;;;;;;5.62;3.42;;;;;;;-3.71;63.15;100658.84;1800638;78;21235;-70
2021/03/09 01:45:33;;;;;;;6.62;3.62;;;;;;;-3.68;63.04;100653.30;1805507;79;21107;-70
2021/03/09 01:48:04;;;;;;;7.20;3.55;;;;;;;-3.67;63.04;100651.82;1796367;79;22172;-70
2021/03/09 01:50:35;;;;;;;6.90;3.05;;;;;;;-3.63;63.07;100656.23;1783660;80;21341;-70
2021/03/09 01:53:05;;;;;;;7.65;3.40;;;;;;;-3.58;62.99;100659.18;1785009;79;21223;-69
2021/03/09 01:55:33;;;;;;;7.85;3.25;;;;;;;-3.56;62.98;100659.32;1790486;79;21167;-70
2021/03/09 01:58:07;;;;;;;6.15;3.00;;;;;;;-3.50;62.86;100653.14;1762247;79;21151;-70
2021/03/09 02:00:42;;;;;;;6.10;3.20;;;;;;;-3.39;62.63;100657.56;1782713;79;22719;-70
2021/03/09 02:03:10;;;;;;;5.47;3.00;;;;;;;-3.40;62.38;100662.93;1777313;80;21643;-71
2021/03/09 02:05:38;;;;;;;5.58;3.02;;;;;;;-3.38;62.31;100657.87;1789743;77;21342;-70
2021/03/09 02:08:05;;;;;;;6.67;3.10;;;;;;;-3.31;62.25;100661.46;1801819;77;21199;-69
2021/03/09 02:10:34;;;;;;;5.60;2.75;;;;;;;-3.28;62.12;100664.73;1799837;79;21053;-69
2021/03/09 02:13:29;;;;;;;4.40;2.52;;;;;;;-3.26;61.92;100668.80;1791561;77;21496;-69
2021/03/09 02:16:20;;;;;;;4.92;2.30;;;;;;;-3.25;61.84;100663.11;1782412;79;21104;-70
2021/03/09 02:19:01;;;;;;;5.10;2.50;;;;;;;-3.26;61.82;100670.09;1789353;78;21289;-70
2021/03/09 02:22:07;;;;;;;4.17;2.40;;;;;;;-3.24;61.66;100669.45;1791047;79;21508;-70
2021/03/09 02:24:53;;;;;;;5.50;2.87;;;;;;;-3.22;61.75;100667.51;1796710;77;21164;-70
2021/03/09 02:27:55;;;;;;;6.30;2.80;;;;;;;-3.19;61.70;100674.18;1771576;79;21260;-71
2021/03/09 02:30:29;;;;;;;5.80;2.35;;;;;;;-3.20;61.63;100670.75;1794686;77;21156;-70
2021/03/09 02:33:13;;;;;;;7.03;2.90;;;;;;;-3.19;61.63;100674.18;1796236;77;21365;-70
2021/03/09 02:35:49;;;;;;;5.15;2.60;;;;;;;-3.16;61.71;100679.08;1785947;77;21175;-71
2021/03/09 02:38:17;;;;;;;5.87;2.72;;;;;;;-3.16;61.76;100678.61;1786575;77;21602;-72
2021/03/09 02:40:45;;;;;;;4.10;2.30;;;;;;;-3.16;61.69;100686.45;1788950;77;21187;-72
2021/03/09 02:43:17;;;;;;;5.62;2.60;;;;;;;-3.17;61.70;100687.91;1788819;79;21115;-71
2021/03/09 02:45:50;;;;;;;6.75;3.00;;;;;;;-3.18;61.79;100684.48;1771177;78;22615;-69
2021/03/09 02:48:21;;;;;;;5.33;2.52;;;;;;;-3.14;61.75;100685.78;1777088;79;21222;-69
2021/03/09 02:50:51;;;;;;;5.10;2.30;;;;;;;-3.12;61.85;100683.83;1783429;78;21163;-70
2021/03/09 02:53:19;;;;;;;4.45;2.47;;;;;;;-3.11;61.76;100687.25;1770799;79;21653;-69
2021/03/09 02:55:47;;;;;;;4.25;2.20;;;;;;;-3.10;61.66;100694.91;1772611;78;21757;-69
2021/03/09 02:58:17;;;;;;;5.05;2.52;;;;;;;-3.08;61.50;100702.11;1742655;78;22194;-71
2021/03/09 03:00:47;;;;;;;5.08;2.40;;;;;;;-3.07;61.33;100695.89;1780723;78;21164;-70
2021/03/09 03:03:18;;;;;;;5.28;2.27;;;;;;;-3.07;61.35;100705.03;1761710;78;21216;-72
2021/03/09 03:05:47;;;;;;;4.28;2.20;;;;;;;-3.09;61.26;100703.59;1754105;79;21186;-69
2021/03/09 03:08:16;;;;;;;5.30;2.35;;;;;;;-3.11;61.29;100705.05;1781824;78;22268;-70
2021/03/09 03:10:46;;;;;;;5.15;2.55;;;;;;;-3.11;61.32;100706.84;1779879;78;21235;-69
2021/03/09 03:13:14;;;;;;;4.60;2.60;;;;;;;-3.10;61.18;100721.04;1782817;79;21176;-68
2021/03/09 03:15:42;;;;;;;4.37;2.52;;;;;;;-3.14;61.08;100707.98;1784294;78;21168;-68
2021/03/09 03:18:13;;;;;;;5.03;2.70;;;;;;;-3.15;61.15;100711.59;1790477;78;21665;-69
2021/03/09 03:23:19;;;;;;;4.87;2.70;;;;;;;-3.07;61.17;100718.10;1795627;79;22747;-70
2021/03/09 03:25:51;;;;;;;3.70;2.37;;;;;;;-3.09;60.97;100723.19;1775412;80;21177;-69
2021/03/09 03:28:20;;;;;;;4.87;2.62;;;;;;;-3.11;60.66;100724.64;1754423;80;22280;-70
2021/03/09 03:30:50;;;;;;;4.42;2.15;;;;;;;-3.12;60.62;100723.02;1773583;79;21584;-71
2021/03/09 03:33:18;;;;;;;4.95;2.40;;;;;;;-3.11;60.62;100722.52;1767440;80;21209;-70
2021/03/09 03:35:46;;;;;;;4.35;2.40;;;;;;;-3.12;60.55;100721.71;1730323;81;21668;-70
2021/03/09 03:38:15;;;;;;;4.62;2.20;;;;;;;-3.09;60.51;100726.61;1717691;81;21332;-69
2021/03/09 03:40:43;;;;;;;5.50;2.90;;;;;;;-3.07;60.51;100725.94;1711201;82;21427;-71
2021/03/09 03:43:11;;;;;;;5.03;2.52;;;;;;;-3.04;60.59;100729.22;1715381;82;21149;-69
2021/03/09 03:45:39;;;;;;;5.05;2.47;;;;;;;-3.03;60.45;100729.53;1740067;81;21317;-69
2021/03/09 03:48:08;;;;;;;4.95;2.37;;;;;;;-3.04;60.46;100736.56;1716436;81;21165;-69
2021/03/09 03:50:36;;;;;;;4.58;2.30;;;;;;;-3.06;60.49;100738.51;1722377;81;21199;-69
2021/03/09 03:53:12;;;;;;;5.03;2.30;;;;;;;-3.08;60.62;100738.69;1714372;83;21431;-69
2021/03/09 03:56:11;;;;;;;5.65;2.35;;;;;;;-3.05;60.50;100743.27;1737373;80;21203;-70
2021/03/09 03:59:10;;;;;;;5.58;2.42;;;;;;;-3.05;60.56;100746.70;1717938;81;21549;-68
2021/03/09 04:01:39;;;;;;;6.35;2.52;;;;;;;-3.05;60.70;100749.31;1719525;81;21207;-69
2021/03/09 04:04:11;;;;;;;5.72;2.80;;;;;;;-3.05;60.79;100744.58;1712237;83;21131;-70
2021/03/09 04:06:43;;;;;;;5.25;2.50;;;;;;;-3.04;60.84;100737.87;1691360;83;21213;-71
2021/03/09 04:09:12;;;;;;;7.08;2.80;;;;;;;-3.03;60.90;100749.13;1700576;83;21173;-70
2021/03/09 04:11:40;;;;;;;5.08;2.60;;;;;;;-3.05;60.97;100753.23;1737865;81;21678;-70
2021/03/09 04:14:12;;;;;;;7.05;3.25;;;;;;;-3.09;61.07;100756.66;1718135;81;21180;-70
2021/03/09 04:16:42;;;;;;;6.53;2.92;;;;;;;-3.10;61.21;100754.20;1719422;81;21141;-70
2021/03/09 04:19:12;;;;;;;5.30;2.98;;;;;;;-3.10;61.52;100756.31;1722001;81;22509;-71
2021/03/09 04:21:41;;;;;;;5.47;2.92;;;;;;;-3.11;61.62;100758.61;1714863;82;22392;-70
2021/03/09 04:24:12;;;;;;;4.53;2.50;;;;;;;-3.12;61.81;100764.83;1756393;80;21213;-69
2021/03/09 04:26:41;;;;;;;5.17;2.35;;;;;;;-3.14;61.98;100770.69;1747964;80;21213;-69
2021/03/09 04:29:11;;;;;;;5.10;2.60;;;;;;;-3.13;62.04;100771.00;1704358;82;21170;-68
2021/03/09 04:31:41;;;;;;;3.85;2.30;;;;;;;-3.18;61.83;100774.61;1698294;83;21708;-69
2021/03/09 04:34:09;;;;;;;4.65;2.30;;;;;;;-3.22;61.71;100777.72;1693147;83;21181;-69
2021/03/09 04:36:39;;;;;;;4.05;2.30;;;;;;;-3.23;61.93;100775.57;1697438;82;21719;-70
2021/03/09 04:39:08;;;;;;;4.67;2.10;;;;;;;-3.25;62.22;100784.57;1680967;83;21202;-68
2021/03/09 04:41:36;;;;;;;5.17;1.92;;;;;;;-3.27;62.48;100776.88;1748155;80;21664;-69
2021/03/09 04:44:05;;;;;;;3.42;1.92;;;;;;;-3.24;62.73;100788.31;1760724;80;21382;-69
2021/03/09 04:46:32;;;;;;;3.92;2.15;;;;;;;-3.27;63.18;100789.94;1761336;80;21675;-69
2021/03/09 04:49:01;;;;;;;4.45;2.10;;;;;;;-3.32;63.56;100794.35;1734332;80;21184;-70
2021/03/09 04:51:30;;;;;;;5.33;2.60;;;;;;;-3.36;63.91;100789.59;1753336;80;21371;-68
2021/03/09 04:53:59;;;;;;;7.15;3.70;;;;;;;-3.40;64.42;100795.63;1754710;80;21247;-69
2021/03/09 04:56:27;;;;;;;7.65;3.90;;;;;;;-3.42;64.79;100787.61;1739928;80;21387;-71
2021/03/09 04:58:55;;;;;;;7.10;3.70;;;;;;;-3.44;65.20;100800.03;1729145;82;21647;-69
2021/03/09 05:01:22;;;;;;;8.33;3.90;;;;;;;-3.47;65.64;100806.38;1699215;82;21625;-69
2021/03/09 05:03:51;;;;;;;8.50;3.72;;;;;;;-3.51;65.87;100807.69;1707980;83;21233;-70
2021/03/09 05:06:19;;;;;;;9.48;4.00;;;;;;;-3.48;66.08;100811.78;1706200;83;21631;-69
2021/03/09 05:08:46;;;;;;;7.87;3.47;;;;;;;-3.45;66.17;100810.97;1707215;83;21256;-69
2021/03/09 05:11:16;;;;;;;8.28;4.03;;;;;;;-3.40;66.34;100811.78;1709803;83;21200;-71
2021/03/09 05:13:44;;;;;;;9.88;4.12;;;;;;;-3.38;66.39;100815.06;1756816;80;21732;-70
2021/03/09 05:16:14;;;;;;;6.42;3.45;;;;;;;-3.32;66.45;100815.73;1747980;80;21232;-69
2021/03/09 05:18:41;;;;;;;7.83;3.70;;;;;;;-3.27;66.49;100817.37;1761790;80;21185;-69
2021/03/09 05:21:11;;;;;;;7.35;3.92;;;;;;;-3.26;66.51;100823.41;1758573;80;21396;-68
2021/03/09 05:23:39;;;;;;;9.73;4.78;;;;;;;-3.28;66.56;100826.69;1758254;80;21178;-73
2021/03/09 05:26:06;;;;;;;9.18;4.85;;;;;;;-3.31;66.55;100827.32;1757796;80;21198;-71
2021/03/09 05:28:34;;;;;;;11.55;5.45;;;;;;;-3.32;66.59;100832.72;1751568;80;21202;-72
2021/03/09 05:31:02;;;;;;;11.60;5.58;;;;;;;-3.31;66.68;100834.34;1755773;80;21196;-70
2021/03/09 05:33:30;;;;;;;10.03;5.55;;;;;;;-3.25;66.63;100842.04;1714812;82;22278;-70
2021/03/09 05:35:58;;;;;;;8.90;4.72;;;;;;;-3.17;66.53;100844.16;1758219;80;21224;-70
2021/03/09 05:38:26;;;;;;;10.50;5.47;;;;;;;-3.11;66.45;100850.55;1750573;80;21977;-71
2021/03/09 05:40:54;;;;;;;9.45;5.05;;;;;;;-3.02;66.39;100852.20;1743817;80;21212;-70
2021/03/09 05:43:22;;;;;;;10.08;4.95;;;;;;;-2.92;66.22;100853.37;1760733;80;21156;-70
2021/03/09 05:45:50;;;;;;;10.90;5.15;;;;;;;-2.89;66.07;100856.47;1754531;80;21596;-70
2021/03/09 05:48:18;;;;;;;9.68;4.50;;;;;;;-2.84;65.88;100859.89;1753751;80;21177;-69
2021/03/09 05:50:46;;;;;;;9.83;4.90;;;;;;;-2.85;65.77;100861.70;1720358;82;21185;-70
2021/03/09 05:53:14;;;;;;;10.15;4.97;;;;;;;-2.77;65.69;100864.80;1711042;82;21216;-68
2021/03/09 05:55:42;;;;;;;9.58;4.55;;;;;;;-2.71;65.55;100864.16;1760312;80;21659;-69
2021/03/09 05:58:10;;;;;;;10.15;5.12;;;;;;;-2.68;65.48;100868.25;1754213;80;21267;-70
2021/03/09 06:00:38;;;;;;;8.20;3.75;;;;;;;-2.67;65.46;100878.53;1745464;80;21189;-69
2021/03/09 06:03:06;;;;;;;7.30;3.35;;;;;;;-2.64;65.23;100883.44;1759467;80;21137;-69
2021/03/09 06:05:34;;;;;;;6.08;2.87;;;;;;;-2.68;65.09;100889.16;1719486;82;21229;-71
2021/03/09 06:08:02;;;;;;;5.10;2.72;;;;;;;-2.68;65.09;100889.16;1760200;80;21180;-69
2021/03/09 06:10:29;;;;;;;8.40;3.77;;;;;;;-2.76;65.30;100893.91;1755316;80;21605;-71
2021/03/09 06:12:57;;;;;;;10.05;5.42;;;;;;;-2.85;65.01;100901.40;1758907;80;21204;-69
2021/03/09 06:15:25;;;;;;;7.83;4.37;;;;;;;-2.98;65.20;100910.20;1716174;82;21211;-71
2021/03/09 06:17:55;;;;;;;5.67;3.10;;;;;;;-3.10;65.53;100917.00;1704549;83;21503;-70
2021/03/09 06:20:26;;;;;;;6.20;2.87;;;;;;;-3.15;65.80;100915.37;1713745;82;21261;-69
2021/03/09 06:22:58;;;;;;;4.55;2.67;;;;;;;-3.15;65.86;100919.29;1713524;82;21397;-68
2021/03/09 06:25:39;;;;;;;5.47;3.08;;;;;;;-3.16;66.09;100921.59;1698675;83;21190;-69
2021/03/09 06:28:09;;;;;;;7.70;3.52;;;;;;;-3.13;66.14;100923.03;1703656;84;21193;-70
2021/03/09 06:30:40;;;;;;;5.78;2.87;;;;;;;-3.11;66.18;100932.36;1718299;82;21216;-69
2021/03/09 06:33:09;;;;;;;5.15;2.90;;;;;;;-3.05;65.96;100935.33;1749356;80;21697;-70
2021/03/09 06:35:40;;;;;;;5.60;3.00;;;;;;;-3.02;65.76;100933.71;1718343;82;21200;-69
2021/03/09 06:38:22;;;;;;;9.45;3.22;;;;;;;-2.99;65.40;100943.84;1757478;80;21204;-70
2021/03/09 06:41:16;;;;;;;5.17;2.90;;;;;;;-2.95;65.09;100936.02;1716586;81;21636;-69
2021/03/09 06:43:59;;;;;;;5.95;3.05;;;;;;;-2.93;64.33;100939.27;1752605;80;21193;-69
2021/03/09 06:46:26;;;;;;;4.65;2.00;;;;;;;-2.98;63.29;100946.78;1754989;80;21652;-67
2021/03/09 06:49:01;;;;;;;4.45;2.17;;;;;;;-3.03;61.51;100949.04;1748268;80;22692;-68
2021/03/09 06:51:36;;;;;;;5.10;2.08;;;;;;;-3.11;60.87;100946.73;1751573;80;21192;-69
2021/03/09 06:54:10;;;;;;;4.42;2.40;;;;;;;-3.19;60.54;100958.94;1701317;82;21230;-68
2021/03/09 06:56:41;;;;;;;4.83;2.30;;;;;;;-3.23;60.63;100961.05;1760617;80;21714;-67
2021/03/09 06:59:31;;;;;;;4.92;2.50;;;;;;;-3.25;60.80;100967.42;1758629;80;21125;-69
2021/03/09 07:02:11;;;;;;;4.47;2.25;;;;;;;-3.29;60.85;100969.53;1751977;80;21382;-67
2021/03/09 07:04:43;;;;;;;4.83;2.52;;;;;;;-3.37;60.46;100965.56;1752848;80;21216;-68
2021/03/09 07:07:14;;;;;;;6.47;3.05;;;;;;;-3.41;60.93;100971.58;1755908;80;21624;-67
2021/03/09 07:10:18;;;;;;;5.25;2.15;;;;;;;-3.39;61.34;100974.03;1754013;80;23175;-68
2021/03/09 07:12:48;;;;;;;6.37;2.50;;;;;;;-3.32;61.57;100973.77;1758606;80;21204;-70
2021/03/09 07:15:17;;;;;;;4.85;2.50;;;;;;;-3.26;61.15;100971.80;1755708;80;21241;-67
2021/03/09 07:17:50;;;;;;;5.53;2.90;;;;;;;-3.20;60.74;100976.41;1755608;80;21205;-67
2021/03/09 07:20:18;;;;;;;4.47;2.98;;;;;;;-3.13;60.47;100976.11;1713597;82;21243;-68
2021/03/09 07:22:48;;;;;;;5.47;3.12;;;;;;;-3.08;60.19;100971.24;1752780;80;21152;-67
2021/03/09 07:25:17;;;;;;;5.55;2.87;;;;;;;-2.98;60.21;100978.95;1734269;80;21220;-67
2021/03/09 07:27:50;;;;;;;5.22;2.50;;;;;;;-2.88;59.93;100975.72;1758809;80;21381;-68
2021/03/09 07:30:20;;;;;;;6.08;3.00;;;;;;;-2.84;58.08;100967.88;1751457;80;21229;-68
2021/03/09 07:32:50;;;;;;;6.67;2.65;;;;;;;-2.90;58.07;100978.97;1730047;82;21070;-68
2021/03/09 07:38:04;;;;;;;6.87;2.93;;;;;;;-2.85;56.60;100978.02;1833328;77;22765;-67
2021/03/09 07:40:35;;;;;;;9.20;3.60;;;;;;;-2.90;56.60;100978.16;1816544;77;21211;-69
2021/03/09 07:43:04;;;;;;;7.17;3.10;;;;;;;-2.94;57.04;100985.50;1819374;77;21606;-69
2021/03/09 07:45:36;;;;;;;7.65;3.15;;;;;;;-2.87;56.89;100977.34;1808181;78;21170;-69
2021/03/09 07:48:22;;;;;;;6.90;3.00;;;;;;;-2.78;56.80;100980.00;1808582;78;21191;-68
2021/03/09 07:50:50;;;;;;;7.83;3.50;;;;;;;-2.69;57.02;100977.25;1779038;78;21186;-69
2021/03/09 07:53:19;;;;;;;8.43;3.70;;;;;;;-2.63;56.88;100976.61;1809357;78;21253;-68
2021/03/09 07:55:49;;;;;;;9.65;3.70;;;;;;;-2.66;56.83;100981.35;1808652;77;21254;-68
2021/03/09 07:58:26;;;;;;;8.13;3.67;;;;;;;-2.62;57.14;100982.17;1805120;77;21275;-68
2021/03/09 08:01:07;;;;;;;8.63;3.40;;;;;;;-2.44;57.05;100993.80;1806835;78;21330;-68
2021/03/09 08:03:40;;;;;;;10.98;4.45;;;;;;;-2.24;56.85;100984.34;1815126;77;21219;-69
2021/03/09 08:06:16;;;;;;;12.03;4.85;;;;;;;-2.03;56.81;100983.88;1806944;77;21156;-68
2021/03/09 08:08:56;;;;;;;10.75;4.22;;;;;;;-1.85;56.13;100986.30;1814259;78;21372;-71
2021/03/09 08:11:29;;;;;;;10.70;4.00;;;;;;;-1.74;55.73;100980.75;1814131;77;21195;-71
2021/03/09 08:14:09;;;;;;;9.10;4.10;;;;;;;-1.70;55.45;100976.31;1814310;78;21176;-70
2021/03/09 08:16:40;;;;;;;7.78;3.83;;;;;;;-1.56;55.53;100980.54;1805445;77;21195;-70
2021/03/09 08:19:15;;;;;;;7.83;3.70;;;;;;;-1.44;55.03;100974.78;1811679;77;21257;-69
2021/03/09 08:21:59;;;;;;;6.28;3.42;;;;;;;-1.34;54.46;100971.97;1819710;78;22360;-69
2021/03/09 08:24:47;;;;;;;12.30;3.72;;;;;;;-1.23;54.29;100975.52;1811232;77;21164;-69
2021/03/09 08:27:35;;;;;;;10.40;3.25;;;;;;;-1.16;54.32;100976.16;1808846;77;21183;-70
2021/03/09 08:30:27;;;;;;;6.90;3.45;;;;;;;-0.97;53.61;100967.89;1812198;77;21060;-71
2021/03/09 08:33:22;;;;;;;5.35;3.10;;;;;;;-0.85;53.35;100978.83;1810039;77;21205;-69
2021/03/09 08:35:50;;;;;;;6.67;3.85;;;;;;;-0.73;52.56;100982.68;1790943;78;21389;-69
2021/03/09 08:38:20;;;;;;;5.70;3.30;;;;;;;-0.68;52.12;100975.13;1813902;77;21211;-71
2021/03/09 08:41:03;;;;;;;6.28;3.50;;;;;;;-0.67;51.44;100973.31;1849770;77;21175;-71
2021/03/09 08:43:31;;;;;;;4.90;3.22;;;;;;;-0.76;51.66;100976.46;1819469;77;21163;-71
2021/03/09 08:46:00;;;;;;;6.45;3.37;;;;;;;-0.85;51.54;100980.95;1819926;78;21198;-71
2021/03/09 08:48:50;;;;;;;6.70;3.75;;;;;;;-0.94;51.81;100979.35;1823136;77;21362;-70
2021/03/09 08:51:44;;;;;;;7.08;3.70;;;;;;;-1.02;51.90;100985.92;1824461;76;21238;-70
2021/03/09 08:54:27;;;;;;;6.95;4.45;;;;;;;-1.16;52.06;100975.66;1825488;77;21767;-72
2021/03/09 08:56:58;;;;;;;6.20;3.90;;;;;;;-1.27;52.54;100985.22;1805110;77;21520;-69
2021/03/09 08:59:30;;;;;;;11.85;5.15;;;;;;;-1.41;53.13;100994.59;1809555;77;21184;-73
2021/03/09 09:02:06;;;;;;;11.65;5.00;;;;;;;-1.54;54.25;100990.38;1817111;78;21334;-72
2021/03/09 09:04:35;;;;;;;10.05;4.28;;;;;;;-1.78;56.33;100997.25;1836283;77;21249;-72
2021/03/09 09:07:40;;;;;;;8.70;4.08;;;;;;;-2.04;58.19;100996.14;1824709;76;21699;-72
2021/03/09 09:10:21;;;;;;;8.95;4.00;;;;;;;-2.29;59.29;100999.72;1812741;77;21204;-73
2021/03/09 09:12:52;;;;;;;7.47;3.12;;;;;;;-2.57;60.24;101007.01;1817707;77;21274;-71
2021/03/09 09:15:30;;;;;;;7.65;3.33;;;;;;;-2.75;60.78;101010.56;1835253;76;21368;-70
2021/03/09 09:18:06;;;;;;;8.33;3.98;;;;;;;-2.80;60.83;101009.39;1803877;78;21172;-69
2021/03/09 09:20:43;;;;;;;8.28;4.20;;;;;;;-2.83;60.95;101015.75;1816949;77;21187;-70
2021/03/09 09:23:18;;;;;;;6.95;3.60;;;;;;;-2.77;61.32;101026.89;1834728;77;21200;-69
2021/03/09 09:25:49;;;;;;;6.35;3.05;;;;;;;-2.72;61.24;101016.79;1827578;78;21183;-70
2021/03/09 09:28:34;;;;;;;7.22;3.33;;;;;;;-2.71;61.36;101031.48;1821170;78;21232;-70
2021/03/09 09:31:12;;;;;;;5.45;3.20;;;;;;;-2.77;60.22;101021.66;1818089;78;21215;-70
2021/03/09 09:33:50;;;;;;;5.30;3.50;;;;;;;-2.73;60.33;101028.23;1821343;77;21227;-69
2021/03/09 09:36:21;;;;;;;7.20;3.58;;;;;;;-2.66;60.54;101028.41;1825321;78;21220;-69
2021/03/09 09:38:51;;;;;;;5.72;3.15;;;;;;;-2.54;60.66;101033.66;1820121;77;21246;-71
2021/03/09 09:41:20;;;;;;;7.97;3.77;;;;;;;-2.48;60.77;101029.10;1815030;77;22366;-70
2021/03/09 09:43:48;;;;;;;9.08;3.70;;;;;;;-2.38;60.39;101027.16;1822020;78;21250;-69
2021/03/09 09:46:22;;;;;;;8.03;3.92;;;;;;;-2.28;59.86;101034.05;1850488;77;21146;-71
2021/03/09 09:48:52;;;;;;;8.00;3.95;;;;;;;-2.24;59.56;101034.86;1842915;77;21780;-70
2021/03/09 09:51:22;;;;;;;7.12;3.77;;;;;;;-2.16;59.16;101030.97;1837938;77;21172;-71
2021/03/09 09:53:51;;;;;;;9.35;4.40;;;;;;;-2.06;59.03;101031.30;1849027;77;21671;-71
2021/03/09 09:56:23;;;;;;;7.95;4.40;;;;;;;-1.97;58.17;101030.34;1833739;77;21176;-71
2021/03/09 09:58:54;;;;;;;7.65;4.25;;;;;;;-1.83;57.93;101027.06;1811998;77;21175;-70
2021/03/09 10:01:40;;;;;;;7.03;4.28;;;;;;;-1.66;57.40;101027.86;1813161;77;21646;-72
2021/03/09 10:04:13;;;;;;;8.20;4.42;;;;;;;-1.60;55.84;101029.01;1816066;77;21195;-73
2021/03/09 10:06:44;;;;;;;7.12;4.22;;;;;;;-1.70;55.96;101024.75;1805995;78;21251;-71
2021/03/09 10:09:24;;;;;;;9.43;4.53;;;;;;;-1.72;55.70;101023.28;1819310;77;21255;-72
2021/03/09 10:12:00;;;;;;;10.53;5.40;;;;;;;-1.73;55.49;101035.56;1809863;78;21212;-72
2021/03/09 10:17:08;;;;;;;4.57;2.63;;;;;;;-1.76;55.54;101038.50;1804996;77;22716;-71
2021/03/09 10:19:39;;;;;;;4.92;2.75;;;;;;;-1.92;55.02;101043.24;1746714;79;21165;-72
2021/03/09 10:22:20;;;;;;;6.65;2.50;;;;;;;-1.95;55.04;101050.61;1799878;79;21366;-70
2021/03/09 10:25:10;;;;;;;4.27;2.50;;;;;;;-1.91;53.95;101047.52;1826192;77;22756;-71
2021/03/09 10:27:38;;;;;;;6.87;3.00;;;;;;;-1.95;53.65;101046.69;1786519;79;21191;-71
2021/03/09 10:30:07;;;;;;;6.55;2.65;;;;;;;-1.90;53.77;101048.34;1791818;78;21429;-71
2021/03/09 10:32:53;;;;;;;4.42;2.52;;;;;;;-1.82;52.38;101049.63;1793114;79;21159;-71
2021/03/09 10:35:21;;;;;;;5.25;2.62;;;;;;;-1.74;52.13;101047.03;1799620;77;21163;-70
2021/03/09 10:37:50;;;;;;;5.15;2.60;;;;;;;-1.67;51.78;101057.17;1799188;77;21259;-73
2021/03/09 10:40:18;;;;;;;5.97;3.22;;;;;;;-1.73;51.61;101043.42;1795153;78;21211;-70
2021/03/09 10:42:51;;;;;;;8.10;3.40;;;;;;;-1.77;51.94;101051.78;1791170;77;22402;-75
2021/03/09 10:45:30;;;;;;;6.03;2.90;;;;;;;-1.80;52.04;101051.61;1776970;77;21989;-72
2021/03/09 10:48:00;;;;;;;5.42;3.20;;;;;;;-1.75;52.16;101054.53;1803732;77;21768;-71
2021/03/09 10:50:43;;;;;;;5.25;3.30;;;;;;;-1.72;52.06;101052.09;1789281;78;21199;-71
2021/03/09 10:53:12;;;;;;;6.15;2.58;;;;;;;-1.66;52.19;101050.13;1791468;79;21151;-71
2021/03/09 10:55:40;;;;;;;6.65;2.83;;;;;;;-1.58;51.67;101052.75;1792296;79;21240;-72
2021/03/09 10:58:08;;;;;;;6.83;2.83;;;;;;;-1.52;50.68;101049.94;1802078;79;21211;-71
2021/03/09 11:00:36;;;;;;;5.20;3.05;;;;;;;-1.53;49.44;101054.87;1790858;79;22146;-71
2021/03/09 11:03:04;;;;;;;5.28;2.30;;;;;;;-1.59;49.87;101056.83;1796998;79;21120;-71
2021/03/09 11:05:32;;;;;;;3.72;2.30;;;;;;;-1.61;48.99;101065.33;1796915;79;21209;-71
2021/03/09 11:08:00;;;;;;;6.05;2.50;;;;;;;-1.60;49.10;101061.75;1795945;79;21802;-71
2021/03/09 11:10:28;;;;;;;5.65;2.67;;;;;;;-1.56;49.05;101069.60;1783746;78;21578;-71
2021/03/09 11:12:57;;;;;;;4.60;2.40;;;;;;;-1.50;48.97;101056.66;1808577;78;21171;-71
2021/03/09 11:15:24;;;;;;;4.60;2.87;;;;;;;-1.41;48.86;101060.09;1822606;78;21284;-71
2021/03/09 11:17:52;;;;;;;4.83;2.67;;;;;;;-1.34;48.88;101062.88;1777677;78;21181;-73
2021/03/09 11:20:21;;;;;;;4.65;2.50;;;;;;;-1.28;48.06;101056.47;1802597;77;21227;-71
2021/03/09 11:22:49;;;;;;;5.50;2.60;;;;;;;-1.19;47.40;101064.62;1805182;78;21196;-73
2021/03/09 11:25:18;;;;;;;4.87;2.60;;;;;;;-1.11;47.46;101065.11;1793818;79;21191;-72
2021/03/09 11:27:46;;;;;;;4.97;2.83;;;;;;;-0.96;46.76;101059.98;1811506;79;21179;-71
2021/03/09 11:30:17;;;;;;;4.55;2.40;;;;;;;-0.76;45.58;101067.80;1807763;77;21158;-72
2021/03/09 11:32:44;;;;;;;4.55;2.52;;;;;;;-0.60;45.15;101062.95;1795740;79;22397;-71
2021/03/09 11:35:14;;;;;;;5.00;2.47;;;;;;;-0.46;44.48;101062.75;1792420;79;21195;-72
2021/03/09 11:37:42;;;;;;;4.25;2.72;;;;;;;-0.46;43.68;101062.75;1803141;79;21175;-71
2021/03/09 11:40:12;;;;;;;4.28;2.50;;;;;;;-0.51;44.28;101054.55;1808458;77;21234;-74
2021/03/09 11:42:39;;;;;;;5.53;2.80;;;;;;;-0.55;43.98;101060.64;1797641;79;21194;-72
2021/03/09 11:45:09;;;;;;;5.80;2.80;;;;;;;-0.65;44.33;101064.47;1805760;79;21294;-71
2021/03/09 11:47:37;;;;;;;6.33;2.67;;;;;;;-0.79;44.02;101061.58;1794725;79;21179;-71
2021/03/09 11:50:08;;;;;;;7.67;3.12;;;;;;;-0.96;45.67;101063.91;1801812;77;21574;-72
2021/03/09 11:52:38;;;;;;;5.05;2.85;;;;;;;-1.13;47.71;101065.77;1803366;77;21213;-73
2021/03/09 11:55:08;;;;;;;4.85;3.08;;;;;;;-1.25;48.69;101067.09;1800309;77;21114;-73